Hub


Voltar

 INFORMAÇÕES METEOROLÓGICAS

METAR FOR LSZA


ADDS - METARS form results

(0119 UTC 27 March 2019)
Data provider http://aviationweather.gov/metar/data/
 
METAR text: LSZA 270050Z AUTO VRB01KT CAVOK 04/M06 Q1025
Conditions at: LSZA (LUGANO (PVT/AUT), CH) observed 0050 UTC 27 March 2019
Temperature: 4.0°C (39°F)
Dewpoint: -6.0°C (21°F) [RH = 48%]
Pressure (altimeter): 30.27 inches Hg (1025.0 mb)
Winds: variable direction winds at 1 MPH (1 knots; 0.5 m/s)
Visibility: 6 or more miles (10+ km)
Ceiling: ceiling and visibility are OK
Clouds: unknown
Weather: no significant weather observed at this time

METAR text: LSZA 270020Z AUTO VRB03KT CAVOK 05/M06 Q1025
Conditions at: LSZA (LUGANO (PVT/AUT), CH) observed 0020 UTC 27 March 2019
Temperature: 5.0°C (41°F)
Dewpoint: -6.0°C (21°F) [RH = 45%]
Pressure (altimeter): 30.27 inches Hg (1025.0 mb)
Winds: variable direction winds at 3 MPH (3 knots; 1.5 m/s)
Visibility: 6 or more miles (10+ km)
Ceiling: ceiling and visibility are OK
Clouds: unknown
Weather: no significant weather observed at this time

Forecast for: AMD
Text: TAF AMD LSZA 261921Z 2619/2624 36004KT CAVOK
Forecast period: 1900 UTC 26 March 2019 to 0000 UTC 27 March 2019
Forecast type: FROM: standard forecast or significant change
Winds: from the N (360 degrees) at 5 MPH (4 knots; 2.1 m/s)
Visibility: 6 or more miles 10+ km)
Ceiling: unknown
Clouds: missing
Weather: NSW  (no significant weather)
Text: PROB40
Forecast period: 1900 to 2100 UTC 26 March 2019
Forecast type: TEMPORARY: The following changes expected for less than half the time period
Winds: from the N (10 degrees) at 14 MPH (12 knots; 6.2 m/s)
Visibility: missing
Ceiling: unknown
Clouds: missing
Weather: no significant weather forecast for this period


 MAPA DO AEROPORTO


 INFORMAÇÕES DA PISTA

Pista 01 Tamanho da pista 4429 ft Largura da pista 98 ft
Elevação da pista 896 ft Ranhura da pista 361 ft Proa da pista 19
Pista 19 Tamanho da pista 4429 ft Largura da pista 98 ft
Elevação da pista 915 ft Ranhura da pista 672 ft Proa da pista 199

 FREQUÊNCIAS DO AEROPORTO

Tipo ATIS Nome ATIS Frequência 121.175 MHZ
Tipo GND Nome GND Frequência 121.775 MHZ
Tipo TWR Nome TWR Frequência 120.25 MHZ

 AUXÍLIOS DE NAVEGAÇÃO PRÓXIMOS AO AEROPORTO